createdAt,value
2019-03-23T00:00:00.371Z,12.90
2019-03-23T00:02:30.261Z,14.13
2019-03-23T00:05:00.266Z,15.13
2019-03-23T00:07:30.482Z,14.60
2019-03-23T00:10:00.354Z,15.20
2019-03-23T00:12:30.225Z,14.03
2019-03-23T00:15:00.009Z,13.77
2019-03-23T00:17:29.736Z,13.57
2019-03-23T00:19:59.437Z,17.30
2019-03-23T00:22:29.550Z,12.63
2019-03-23T00:24:59.384Z,14.50
2019-03-23T00:27:29.522Z,15.43
2019-03-23T00:29:59.689Z,14.40
2019-03-23T00:32:29.657Z,16.13
2019-03-23T00:34:59.413Z,13.93
2019-03-23T00:37:29.463Z,15.03
2019-03-23T00:39:59.285Z,15.90
2019-03-23T00:42:29.082Z,15.23
2019-03-23T00:44:58.871Z,15.33
2019-03-23T00:47:28.730Z,16.17
2019-03-23T00:49:58.492Z,15.17
2019-03-23T00:52:28.297Z,17.40
2019-03-23T00:54:58.345Z,15.10
2019-03-23T00:57:28.111Z,15.83
2019-03-23T00:59:57.889Z,16.53
2019-03-23T01:02:27.813Z,17.53
2019-03-23T01:04:57.805Z,17.97
2019-03-23T01:07:27.598Z,19.07
2019-03-23T01:09:57.437Z,16.07
2019-03-23T01:12:27.347Z,15.83
2019-03-23T01:14:57.399Z,15.60
2019-03-23T01:17:27.106Z,21.30
2019-03-23T01:19:56.826Z,18.33
2019-03-23T01:22:26.519Z,18.37
2019-03-23T01:24:56.389Z,17.30
2019-03-23T01:27:26.090Z,16.57
2019-03-23T01:29:55.867Z,18.23
2019-03-23T01:32:25.563Z,17.27
2019-03-23T01:34:55.421Z,17.57
2019-03-23T01:37:25.227Z,18.50
2019-03-23T01:39:55.296Z,17.63
2019-03-23T01:42:25.110Z,15.57
2019-03-23T01:44:55.209Z,19.33
2019-03-23T01:47:25.680Z,18.43
2019-03-23T01:49:55.562Z,19.73
2019-03-23T01:52:25.338Z,17.53
2019-03-23T01:54:55.344Z,19.10
2019-03-23T01:57:25.177Z,17.17
2019-03-23T01:59:54.961Z,17.47
2019-03-23T02:02:24.703Z,17.13
2019-03-23T02:04:54.472Z,17.47
2019-03-23T02:07:24.316Z,18.90
2019-03-23T02:09:54.121Z,17.07
2019-03-23T02:12:24.124Z,19.33
2019-03-23T02:14:53.889Z,16.80
2019-03-23T02:17:24.075Z,16.60
2019-03-23T02:19:53.820Z,18.73
2019-03-23T02:22:23.744Z,18.20
2019-03-23T02:24:53.633Z,17.97
2019-03-23T02:27:23.602Z,18.77
2019-03-23T02:29:53.668Z,19.53
2019-03-23T02:32:31.683Z,18.80
2019-03-23T02:35:01.630Z,17.30
2019-03-23T02:37:31.909Z,19.43
2019-03-23T02:40:02.176Z,17.70
2019-03-23T02:42:32.087Z,19.20
2019-03-23T02:45:02.046Z,18.20
2019-03-23T02:47:32.053Z,18.00
2019-03-23T02:50:01.932Z,18.63
2019-03-23T02:52:32.140Z,19.93
2019-03-23T02:55:02.399Z,19.93
2019-03-23T02:57:32.667Z,17.20
2019-03-23T03:00:02.698Z,16.10
2019-03-23T03:02:32.706Z,16.07
2019-03-23T03:05:02.730Z,17.13
2019-03-23T03:07:41.984Z,15.90
2019-03-23T03:10:04.591Z,16.60
2019-03-23T03:12:34.505Z,16.47
2019-03-23T03:15:05.000Z,16.53
2019-03-23T03:17:35.259Z,15.40
2019-03-23T03:20:05.764Z,18.27
2019-03-23T03:22:35.946Z,15.57
2019-03-23T03:25:06.370Z,17.73
2019-03-23T03:27:36.611Z,16.97
2019-03-23T03:30:07.499Z,17.13
2019-03-23T03:32:37.863Z,21.17
2019-03-23T03:35:08.251Z,16.97
2019-03-23T03:37:38.193Z,17.83
2019-03-23T03:40:09.668Z,16.90
2019-03-23T03:42:39.672Z,19.33
2019-03-23T03:45:09.850Z,20.00
2019-03-23T03:47:41.403Z,16.20
2019-03-23T03:50:11.561Z,16.67
2019-03-23T03:52:41.906Z,17.87
2019-03-23T03:55:11.759Z,19.30
2019-03-23T03:57:41.850Z,16.23
2019-03-23T04:00:11.839Z,14.00
2019-03-23T04:02:41.857Z,17.93
2019-03-23T04:05:12.077Z,16.23
2019-03-23T04:07:42.119Z,18.23
2019-03-23T04:10:12.373Z,17.97
2019-03-23T04:12:43.387Z,16.40
2019-03-23T04:15:13.557Z,17.60
2019-03-23T04:17:43.882Z,16.27
2019-03-23T04:20:16.414Z,17.00
2019-03-23T04:22:46.321Z,16.97
2019-03-23T04:25:16.308Z,17.03
2019-03-23T04:27:46.535Z,15.73
2019-03-23T04:30:16.656Z,16.93
2019-03-23T04:32:46.564Z,15.40
2019-03-23T04:35:16.555Z,17.03
2019-03-23T04:37:46.516Z,19.23
2019-03-23T04:40:16.877Z,15.93
2019-03-23T04:42:46.770Z,16.70
2019-03-23T04:45:16.974Z,15.20
2019-03-23T04:47:46.989Z,20.03
2019-03-23T04:50:17.091Z,16.13
2019-03-23T04:52:47.574Z,17.17
2019-03-23T04:55:17.857Z,18.30
2019-03-23T04:57:47.631Z,15.93
2019-03-23T05:00:18.219Z,16.83
2019-03-23T05:02:48.405Z,18.83
2019-03-23T05:05:18.559Z,18.33
2019-03-23T05:07:48.611Z,15.47
2019-03-23T05:10:18.517Z,16.30
2019-03-23T05:12:49.031Z,18.10
2019-03-23T05:15:19.111Z,17.23
2019-03-23T05:17:49.308Z,17.57
2019-03-23T05:20:38.031Z,19.60
2019-03-23T05:23:07.955Z,18.60
2019-03-23T05:25:37.794Z,18.50
2019-03-23T05:28:07.682Z,17.80
2019-03-23T05:30:37.752Z,21.00
2019-03-23T05:33:07.806Z,20.37
2019-03-23T05:35:38.430Z,22.03
2019-03-23T05:38:08.411Z,18.93
2019-03-23T05:40:38.404Z,22.00
2019-03-23T05:43:08.258Z,17.93
2019-03-23T05:45:38.384Z,19.93
2019-03-23T05:48:08.224Z,21.80
2019-03-23T05:50:38.232Z,17.60
2019-03-23T05:53:08.026Z,21.13
2019-03-23T05:55:37.913Z,19.37
2019-03-23T05:58:08.696Z,21.00
2019-03-23T06:00:39.008Z,20.97
2019-03-23T06:03:09.074Z,19.27
2019-03-23T06:05:39.656Z,23.50
2019-03-23T06:08:09.830Z,19.90
2019-03-23T06:10:40.264Z,18.23
2019-03-23T06:13:10.385Z,21.83
2019-03-23T06:15:40.383Z,18.83
2019-03-23T06:18:10.229Z,19.63
2019-03-23T06:20:39.999Z,20.07
2019-03-23T06:23:10.103Z,19.83
2019-03-23T06:25:39.969Z,16.83
2019-03-23T06:28:10.263Z,19.60
2019-03-23T06:30:40.164Z,16.33
2019-03-23T06:33:09.895Z,17.13
2019-03-23T06:35:39.741Z,17.13
2019-03-23T06:38:09.625Z,18.83
2019-03-23T06:40:39.742Z,18.90
2019-03-23T06:43:10.396Z,22.20
2019-03-23T06:45:40.415Z,20.73
2019-03-23T06:48:10.353Z,17.57
2019-03-23T06:50:40.350Z,19.43
2019-03-23T06:53:10.385Z,20.00
2019-03-23T06:55:40.831Z,18.73
2019-03-23T06:58:10.955Z,18.67
2019-03-23T07:00:41.000Z,22.80
2019-03-23T07:03:11.255Z,18.67
2019-03-23T07:05:41.038Z,19.17
2019-03-23T07:08:10.971Z,22.33
2019-03-23T07:10:41.190Z,19.03
2019-03-23T07:13:11.319Z,19.03
2019-03-23T07:15:41.210Z,22.07
2019-03-23T07:18:11.561Z,18.87
2019-03-23T07:20:41.523Z,20.27
2019-03-23T07:23:11.868Z,18.93
2019-03-23T07:25:41.791Z,18.13
2019-03-23T07:28:12.002Z,23.03
2019-03-23T07:30:41.965Z,18.80
2019-03-23T07:33:15.168Z,20.10
2019-03-23T07:35:45.082Z,21.00
2019-03-23T07:38:15.284Z,18.73
2019-03-23T07:40:45.286Z,19.23
2019-03-23T07:43:15.181Z,18.67
2019-03-23T07:45:45.133Z,20.23
2019-03-23T07:48:15.295Z,18.40
2019-03-23T07:50:45.278Z,21.67
2019-03-23T07:53:15.095Z,20.77
2019-03-23T07:55:45.369Z,19.70
2019-03-23T07:58:15.419Z,23.93
2019-03-23T08:00:45.902Z,18.97
2019-03-23T08:03:17.529Z,20.27
2019-03-23T08:05:47.502Z,21.53
2019-03-23T08:08:17.414Z,20.07
2019-03-23T08:11:06.109Z,19.43
2019-03-23T08:16:11.731Z,19.60
2019-03-23T08:18:41.870Z,18.23
2019-03-23T08:21:11.938Z,20.10
2019-03-23T08:23:41.704Z,18.77
2019-03-23T08:26:12.201Z,18.60
2019-03-23T08:28:42.161Z,18.83
2019-03-23T08:31:12.393Z,19.23
2019-03-23T08:33:42.336Z,18.73
2019-03-23T08:36:12.637Z,22.17
2019-03-23T08:38:47.813Z,20.87
2019-03-23T08:41:17.519Z,21.10
2019-03-23T08:43:48.095Z,20.27
2019-03-23T08:46:17.967Z,21.43
2019-03-23T08:48:48.810Z,21.93
2019-03-23T08:51:19.067Z,20.57
2019-03-23T08:53:49.043Z,19.60
2019-03-23T08:56:19.161Z,23.00
2019-03-23T08:58:46.971Z,21.73
2019-03-23T09:01:17.179Z,21.73
2019-03-23T09:03:52.436Z,23.00
2019-03-23T09:06:20.363Z,23.47
2019-03-23T09:08:50.685Z,21.83
2019-03-23T09:11:21.912Z,23.67
2019-03-23T09:13:52.482Z,28.43
2019-03-23T09:16:22.552Z,28.37
2019-03-23T09:18:52.466Z,26.70
2019-03-23T09:21:22.448Z,27.73
2019-03-23T09:23:52.400Z,28.87
2019-03-23T09:26:22.330Z,32.93
2019-03-23T09:28:52.281Z,32.10
2019-03-23T09:31:22.378Z,32.47
2019-03-23T09:33:52.724Z,35.40
2019-03-23T09:36:23.166Z,39.50
2019-03-23T09:38:53.106Z,33.77
2019-03-23T09:41:23.015Z,34.97
2019-03-23T09:43:52.979Z,34.77
2019-03-23T09:46:23.178Z,34.17
2019-03-23T09:48:53.222Z,40.23
2019-03-23T09:51:23.485Z,35.87
2019-03-23T09:53:53.512Z,41.77
2019-03-23T09:56:23.440Z,42.17
2019-03-23T09:58:53.311Z,45.50
2019-03-23T10:01:23.928Z,39.50
2019-03-23T10:03:53.934Z,43.40
2019-03-23T10:06:24.268Z,46.50
2019-03-23T10:08:54.739Z,45.23
2019-03-23T10:11:24.895Z,44.53
2019-03-23T10:13:55.125Z,48.37
2019-03-23T10:16:25.031Z,43.83
2019-03-23T10:18:55.174Z,48.13
2019-03-23T10:21:25.097Z,39.73
2019-03-23T10:23:55.188Z,41.10
2019-03-23T10:26:25.126Z,43.80
2019-03-23T10:28:55.833Z,40.03
2019-03-23T10:31:26.371Z,45.07
2019-03-23T10:33:56.396Z,41.77
2019-03-23T10:36:26.555Z,46.70
2019-03-23T10:38:56.548Z,43.00
2019-03-23T10:41:26.566Z,49.37
2019-03-23T10:43:57.258Z,48.10
2019-03-23T10:46:27.216Z,48.45
2019-03-23T10:48:57.258Z,39.63
2019-03-23T10:51:28.473Z,50.12
2019-03-23T10:53:58.520Z,45.83
2019-03-23T10:56:28.668Z,50.48
2019-03-23T10:58:59.387Z,42.58
2019-03-23T11:01:29.620Z,45.20
2019-03-23T11:04:00.195Z,41.33
2019-03-23T11:06:30.377Z,44.38
2019-03-23T11:09:00.491Z,45.48
2019-03-23T11:11:30.728Z,39.48
2019-03-23T11:14:01.307Z,46.73
2019-03-23T11:16:33.542Z,40.38
2019-03-23T11:19:13.212Z,35.98
2019-03-23T11:21:36.514Z,47.80
2019-03-23T11:24:07.059Z,46.35
2019-03-23T11:26:37.068Z,42.93
2019-03-23T11:29:08.429Z,41.92
2019-03-23T11:31:38.663Z,42.83
2019-03-23T11:34:17.517Z,52.25
2019-03-23T11:36:40.554Z,44.25
2019-03-23T11:39:10.998Z,46.53
2019-03-23T11:41:41.319Z,50.38
2019-03-23T11:44:11.781Z,72.80
2019-03-23T11:46:41.811Z,49.45
2019-03-23T11:49:11.915Z,63.17
2019-03-23T11:51:43.081Z,46.33
2019-03-23T11:54:13.314Z,48.70
2019-03-23T11:56:43.839Z,40.98
2019-03-23T11:59:13.964Z,85.15
2019-03-23T12:01:51.475Z,68.50
2019-03-23T12:04:15.634Z,42.53
2019-03-23T12:06:45.544Z,42.88
2019-03-23T12:09:15.700Z,90.47
2019-03-23T12:11:45.762Z,63.80
2019-03-23T12:14:15.982Z,53.75
2019-03-23T12:16:46.457Z,73.25
2019-03-23T12:19:16.447Z,43.20
2019-03-23T12:21:46.917Z,87.12
2019-03-23T12:24:16.850Z,48.60
2019-03-23T12:26:46.986Z,46.98
2019-03-23T12:29:16.854Z,45.08
2019-03-23T12:31:47.691Z,43.87
2019-03-23T12:35:37.758Z,46.48
2019-03-23T12:38:07.634Z,68.72
2019-03-23T12:40:37.887Z,49.15
2019-03-23T12:43:08.767Z,55.75
2019-03-23T12:45:41.014Z,69.22
2019-03-23T12:48:12.221Z,72.60
2019-03-23T12:50:42.046Z,67.65
2019-03-23T12:53:11.784Z,53.05
2019-03-23T12:55:42.054Z,39.95
2019-03-23T12:58:12.105Z,43.50
2019-03-23T13:00:42.070Z,43.50
2019-03-23T13:03:12.273Z,44.20
2019-03-23T13:05:42.107Z,43.45
2019-03-23T13:08:12.278Z,42.10
2019-03-23T13:10:42.141Z,45.35
2019-03-23T13:13:11.981Z,40.73
2019-03-23T13:15:41.845Z,42.03
2019-03-23T13:18:11.961Z,41.37
2019-03-23T13:20:42.254Z,37.85
2019-03-23T13:23:12.738Z,39.80
2019-03-23T13:25:42.673Z,45.38
2019-03-23T13:28:12.518Z,45.52
2019-03-23T13:30:42.275Z,41.90
2019-03-23T13:33:12.556Z,44.53
2019-03-23T13:35:42.537Z,46.28
2019-03-23T13:38:12.281Z,42.75
2019-03-23T13:40:42.048Z,42.85
2019-03-23T13:43:11.912Z,42.13
2019-03-23T13:45:42.987Z,72.58
2019-03-23T13:48:13.269Z,83.15
2019-03-23T13:50:43.774Z,56.73
2019-03-23T13:53:13.542Z,45.08
2019-03-23T13:55:43.348Z,54.45
2019-03-23T13:58:15.340Z,59.90
2019-03-23T14:00:45.315Z,47.48
2019-03-23T14:03:15.454Z,75.25
2019-03-23T14:05:45.326Z,81.92
2019-03-23T14:08:15.216Z,67.82
2019-03-23T14:10:45.469Z,43.45
2019-03-23T14:13:15.333Z,55.67
2019-03-23T14:15:45.522Z,43.52
2019-03-23T14:18:17.500Z,40.73
2019-03-23T14:20:47.568Z,63.85
2019-03-23T14:23:17.371Z,44.27
2019-03-23T14:25:47.197Z,36.10
2019-03-23T14:28:17.243Z,82.82
2019-03-23T14:30:48.208Z,48.50
2019-03-23T14:33:19.129Z,77.78
2019-03-23T14:35:49.109Z,45.33
2019-03-23T14:38:20.123Z,42.88
2019-03-23T14:40:50.089Z,40.35
2019-03-23T14:43:21.064Z,81.30
2019-03-23T14:45:50.983Z,61.10
2019-03-23T14:48:20.984Z,44.53
2019-03-23T14:50:51.195Z,47.78
2019-03-23T14:53:21.046Z,67.75
2019-03-23T14:55:50.931Z,83.70
2019-03-23T14:58:20.890Z,49.35
2019-03-23T15:00:50.904Z,102.27
2019-03-23T15:03:21.194Z,135.05
2019-03-23T15:05:51.057Z,82.25
2019-03-23T15:08:20.977Z,55.88
2019-03-23T15:10:51.233Z,78.33
2019-03-23T15:13:21.573Z,142.13
2019-03-23T15:15:52.633Z,47.70
2019-03-23T15:18:22.627Z,100.72
2019-03-23T15:20:52.377Z,43.10
2019-03-23T15:23:23.363Z,45.75
2019-03-23T15:25:53.229Z,66.62
2019-03-23T15:28:24.569Z,67.62
2019-03-23T15:30:55.362Z,67.22
2019-03-23T15:33:25.518Z,62.05
2019-03-23T15:35:55.701Z,77.00
2019-03-23T15:38:25.981Z,100.67
2019-03-23T15:40:56.114Z,62.43
2019-03-23T15:43:25.934Z,65.83
2019-03-23T15:45:55.926Z,86.00
2019-03-23T15:48:26.074Z,87.02
2019-03-23T15:50:55.855Z,60.00
2019-03-23T15:53:26.085Z,55.98
2019-03-23T15:55:55.929Z,64.65
2019-03-23T15:58:25.860Z,99.65
2019-03-23T16:00:56.263Z,125.65
2019-03-23T16:03:26.151Z,108.92
2019-03-23T16:05:57.324Z,95.32
2019-03-23T16:08:27.265Z,77.87
2019-03-23T16:10:57.006Z,144.00
2019-03-23T16:13:27.086Z,59.73
2019-03-23T16:15:56.957Z,58.73
2019-03-23T16:18:26.796Z,136.65
2019-03-23T16:20:57.027Z,59.30
2019-03-23T16:23:27.137Z,64.03
2019-03-23T16:25:56.904Z,72.22
2019-03-23T16:28:26.742Z,87.97
2019-03-23T16:30:57.327Z,78.40
2019-03-23T16:33:27.516Z,65.57
2019-03-23T16:35:57.559Z,100.45
2019-03-23T16:38:27.508Z,60.65
2019-03-23T16:40:57.361Z,57.98
2019-03-23T16:43:27.102Z,59.55
2019-03-23T16:45:57.044Z,69.37
2019-03-23T16:48:27.559Z,69.05
2019-03-23T16:50:57.401Z,63.50
2019-03-23T16:53:28.776Z,60.78
2019-03-23T16:55:58.514Z,62.62
2019-03-23T16:58:29.140Z,65.40
2019-03-23T17:00:59.353Z,64.32
2019-03-23T17:03:29.186Z,70.40
2019-03-23T17:05:59.599Z,64.47
2019-03-23T17:08:29.375Z,64.60
2019-03-23T17:10:59.234Z,67.90
2019-03-23T17:13:29.163Z,61.42
2019-03-23T17:15:59.240Z,64.97
2019-03-23T17:18:30.246Z,65.67
2019-03-23T17:21:02.202Z,66.47
2019-03-23T17:23:32.087Z,67.05
2019-03-23T17:26:02.868Z,70.33
2019-03-23T17:28:34.638Z,78.57
2019-03-23T17:31:04.775Z,71.30
2019-03-23T17:33:35.113Z,73.87
2019-03-23T17:36:05.409Z,69.50
2019-03-23T17:38:35.539Z,72.80
2019-03-23T17:41:05.373Z,64.13
2019-03-23T17:43:35.253Z,69.17
2019-03-23T17:46:05.517Z,69.23
2019-03-23T17:48:35.415Z,73.87
2019-03-23T17:51:07.023Z,65.30
2019-03-23T17:53:37.138Z,73.10
2019-03-23T17:56:07.056Z,77.27
2019-03-23T17:58:36.919Z,76.17
2019-03-23T18:01:07.756Z,73.93
2019-03-23T18:03:37.593Z,77.23
2019-03-23T18:06:07.775Z,80.43
2019-03-23T18:08:37.603Z,78.03
2019-03-23T18:11:07.427Z,84.57
2019-03-23T18:13:37.442Z,68.27
2019-03-23T18:16:07.547Z,79.13
2019-03-23T18:18:38.443Z,77.13
2019-03-23T18:21:08.393Z,84.63
2019-03-23T18:23:38.141Z,71.97
2019-03-23T18:26:08.751Z,84.23
2019-03-23T18:28:38.593Z,78.60
2019-03-23T18:31:09.093Z,91.93
2019-03-23T18:33:39.817Z,138.53
2019-03-23T18:36:10.122Z,126.73
2019-03-23T18:38:40.210Z,78.00
2019-03-23T18:41:09.942Z,81.00
2019-03-23T18:43:39.726Z,75.23
2019-03-23T18:46:09.559Z,92.87
2019-03-23T18:48:40.127Z,115.83
2019-03-23T18:51:10.276Z,79.53
2019-03-23T18:53:41.516Z,96.83
2019-03-23T18:56:11.451Z,81.10
2019-03-23T18:58:41.263Z,79.77
2019-03-23T19:01:11.077Z,81.27
2019-03-23T19:03:40.845Z,85.43
2019-03-23T19:06:10.685Z,105.80
2019-03-23T19:08:40.541Z,98.43
2019-03-23T19:11:10.352Z,107.23
2019-03-23T19:13:40.229Z,123.80
2019-03-23T19:16:10.414Z,104.77
2019-03-23T19:18:40.253Z,92.20
2019-03-23T19:21:10.529Z,141.40
2019-03-23T19:23:40.372Z,88.10
2019-03-23T19:26:10.574Z,80.03
2019-03-23T19:28:40.349Z,96.80
2019-03-23T19:31:10.166Z,106.03
2019-03-23T19:33:40.321Z,103.50
2019-03-23T19:36:10.473Z,85.37
2019-03-23T19:38:40.707Z,97.60
2019-03-23T19:41:10.561Z,80.47
2019-03-23T19:43:48.945Z,84.17
2019-03-23T19:46:12.434Z,114.93
2019-03-23T19:48:42.508Z,106.97
2019-03-23T19:51:12.332Z,80.10
2019-03-23T19:53:42.849Z,84.37
2019-03-23T19:56:12.638Z,94.67
2019-03-23T19:58:43.036Z,94.00
2019-03-23T20:01:13.014Z,97.90
2019-03-23T20:03:43.209Z,79.43
2019-03-23T20:06:13.232Z,100.17
2019-03-23T20:08:43.671Z,127.47
2019-03-23T20:11:13.520Z,82.57
2019-03-23T20:13:43.978Z,77.50
2019-03-23T20:16:13.856Z,76.13
2019-03-23T20:18:45.053Z,79.07
2019-03-23T20:21:14.973Z,83.47
2019-03-23T20:23:44.718Z,74.43
2019-03-23T20:26:14.571Z,82.60
2019-03-23T20:28:44.481Z,83.27
2019-03-23T20:31:14.400Z,83.23
2019-03-23T20:33:44.265Z,79.60
2019-03-23T20:36:15.007Z,75.07
2019-03-23T20:38:45.094Z,83.53
2019-03-23T20:41:14.975Z,77.33
2019-03-23T20:43:44.859Z,85.73
2019-03-23T20:46:14.566Z,129.00
2019-03-23T20:48:44.312Z,85.30
2019-03-23T20:51:14.706Z,99.63
2019-03-23T20:53:45.320Z,80.73
2019-03-23T20:56:15.268Z,77.17
2019-03-23T20:58:45.884Z,83.63
2019-03-23T21:01:16.209Z,76.53
2019-03-23T21:03:47.123Z,67.90
2019-03-23T21:06:17.075Z,70.57
2019-03-23T21:08:48.401Z,82.87
2019-03-23T21:11:18.404Z,93.53
2019-03-23T21:13:48.298Z,84.97
2019-03-23T21:16:18.374Z,74.07
2019-03-23T21:18:48.302Z,68.93
2019-03-23T21:21:20.063Z,74.10
2019-03-23T21:23:52.024Z,80.70
2019-03-23T21:26:21.923Z,74.57
2019-03-23T21:28:52.230Z,75.37
2019-03-23T21:31:22.556Z,72.33
2019-03-23T21:33:52.835Z,109.60
2019-03-23T21:36:22.614Z,76.30
2019-03-23T21:38:52.460Z,68.53
2019-03-23T21:41:22.841Z,73.67
2019-03-23T21:43:52.707Z,75.30
2019-03-23T21:46:23.081Z,67.40
2019-03-23T21:48:52.938Z,69.67
2019-03-23T21:51:22.686Z,68.10
2019-03-23T21:53:53.662Z,65.63
2019-03-23T21:56:23.934Z,66.17
2019-03-23T21:58:54.550Z,65.10
2019-03-23T22:01:24.327Z,66.43
2019-03-23T22:03:54.318Z,67.90
2019-03-23T22:06:24.503Z,76.97
2019-03-23T22:08:54.417Z,62.90
2019-03-23T22:11:24.313Z,69.20
2019-03-23T22:13:54.042Z,63.03
2019-03-23T22:16:23.795Z,68.40
2019-03-23T22:18:53.503Z,63.10
2019-03-23T22:21:25.339Z,58.87
2019-03-23T22:23:54.958Z,63.80
2019-03-23T22:26:25.156Z,60.33
2019-03-23T22:28:55.215Z,63.97
2019-03-23T22:31:25.100Z,59.50
2019-03-23T22:33:54.913Z,70.87
2019-03-23T22:36:24.801Z,65.17
2019-03-23T22:38:54.686Z,62.97
2019-03-23T22:41:24.850Z,59.20
2019-03-23T22:43:55.097Z,54.97
2019-03-23T22:46:25.303Z,55.53
2019-03-23T22:48:55.193Z,51.10
2019-03-23T22:51:25.359Z,53.87
2019-03-23T22:53:55.543Z,60.27
2019-03-23T22:56:26.185Z,63.37
2019-03-23T22:58:55.960Z,52.13
2019-03-23T23:01:25.894Z,52.97
2019-03-23T23:03:55.813Z,60.03
2019-03-23T23:06:25.571Z,62.90
2019-03-23T23:08:55.621Z,59.67
2019-03-23T23:11:25.357Z,62.40
2019-03-23T23:13:55.593Z,49.23
2019-03-23T23:16:25.423Z,55.97
2019-03-23T23:18:55.218Z,47.57
2019-03-23T23:21:25.331Z,53.40
2019-03-23T23:23:55.130Z,50.43
2019-03-23T23:26:24.894Z,53.93
2019-03-23T23:28:54.993Z,62.83
2019-03-23T23:31:25.086Z,44.63
2019-03-23T23:33:55.122Z,44.60
2019-03-23T23:36:24.916Z,46.13
2019-03-23T23:38:54.646Z,50.30
2019-03-23T23:41:24.341Z,46.53
2019-03-23T23:43:54.352Z,49.67
2019-03-23T23:46:24.550Z,51.27
2019-03-23T23:48:54.271Z,65.80
2019-03-23T23:51:24.095Z,46.30
2019-03-23T23:53:54.289Z,51.87
2019-03-23T23:56:24.072Z,49.23
2019-03-23T23:58:53.886Z,74.53
